Time;durP1;ratioP1;P1;durP2;ratioP2;P2;SDS_P1;SDS_P2;PMS_P1;PMS_P2;Temp;Humidity;BMP_temperature;BMP_pressure;BME280_temperature;BME280_humidity;BME280_pressure;Samples;Min_cycle;Max_cycle;Signal;HPM_P1;HPM_P2
2023/07/06 00:02:00;;;;;;;0.70;0.70;;;21.80;66.50;;;;;;5032926;28;20052;-76
2023/07/06 00:04:25;;;;;;;0.68;0.68;;;21.80;66.50;;;;;;5031395;28;20041;-76
2023/07/06 00:06:51;;;;;;;0.57;0.57;;;21.80;66.50;;;;;;5035919;28;20045;-76
2023/07/06 00:09:16;;;;;;;0.35;0.32;;;21.80;66.70;;;;;;5032455;28;20033;-76
2023/07/06 00:11:44;;;;;;;0.70;0.70;;;21.80;66.80;;;;;;5036653;28;20041;-76
2023/07/06 00:14:10;;;;;;;0.77;0.77;;;21.80;66.50;;;;;;5034012;28;20414;-75
2023/07/06 00:16:35;;;;;;;0.60;0.60;;;21.80;66.20;;;;;;5015935;28;20419;-76
2023/07/06 00:19:01;;;;;;;0.50;0.50;;;21.80;66.70;;;;;;5037213;28;20044;-76
2023/07/06 00:21:27;;;;;;;0.60;0.60;;;21.80;66.40;;;;;;5049375;28;20477;-76
2023/07/06 00:23:53;;;;;;;0.57;0.50;;;21.80;66.60;;;;;;5037053;28;20052;-76
2023/07/06 00:26:20;;;;;;;0.63;0.60;;;21.80;66.70;;;;;;5032300;28;20037;-76
2023/07/06 00:28:49;;;;;;;0.80;0.80;;;21.80;66.70;;;;;;5033382;28;20049;-76
2023/07/06 00:31:21;;;;;;;0.80;0.80;;;21.80;66.80;;;;;;5033281;28;20116;-76
2023/07/06 00:33:52;;;;;;;0.63;0.63;;;21.80;66.90;;;;;;5036137;28;20045;-76
2023/07/06 00:36:17;;;;;;;0.60;0.55;;;21.80;66.70;;;;;;5032072;28;20060;-76
2023/07/06 00:38:44;;;;;;;0.40;0.40;;;21.80;66.70;;;;;;5033905;28;20037;-76
2023/07/06 00:41:10;;;;;;;0.50;0.50;;;21.80;66.60;;;;;;5030515;28;20049;-76
2023/07/06 00:43:52;;;;;;;0.60;0.60;;;21.80;66.80;;;;;;5030690;28;20029;-76
2023/07/06 00:46:18;;;;;;;0.82;0.82;;;21.90;66.40;;;;;;5032128;28;20435;-76
2023/07/06 00:48:44;;;;;;;0.70;0.70;;;21.80;66.70;;;;;;5035460;28;20149;-76
2023/07/06 00:51:13;;;;;;;1.10;0.57;;;21.80;66.60;;;;;;5042669;28;20091;-76
2023/07/06 00:53:40;;;;;;;0.60;0.60;;;21.80;66.70;;;;;;5040979;28;20051;-76
2023/07/06 00:56:06;;;;;;;0.50;0.50;;;21.80;66.60;;;;;;5049008;28;20106;-76
2023/07/06 00:58:39;;;;;;;0.60;0.60;;;21.80;66.70;;;;;;5065164;28;20041;-76
2023/07/06 01:01:06;;;;;;;0.53;0.53;;;21.80;66.70;;;;;;5037018;28;20123;-76
2023/07/06 01:03:33;;;;;;;0.47;0.47;;;21.80;67.20;;;;;;5032289;28;20053;-76
2023/07/06 01:06:01;;;;;;;0.60;0.60;;;21.80;66.60;;;;;;5032756;28;20045;-76
2023/07/06 01:08:26;;;;;;;0.85;0.85;;;21.80;66.30;;;;;;5034785;28;20576;-76
2023/07/06 01:10:53;;;;;;;0.50;0.50;;;21.80;67.00;;;;;;5015147;28;20037;-77
2023/07/06 01:13:20;;;;;;;0.60;0.47;;;21.80;66.30;;;;;;5029917;28;20098;-75
2023/07/06 01:15:57;;;;;;;0.40;0.40;;;21.80;66.90;;;;;;5016196;28;20049;-75
2023/07/06 01:18:32;;;;;;;0.55;0.55;;;21.80;66.70;;;;;;5039861;28;20140;-75
2023/07/06 01:21:21;;;;;;;1.65;0.45;;;21.80;67.10;;;;;;5030306;28;20029;-75
2023/07/06 01:24:10;;;;;;;0.50;0.50;;;21.80;66.50;;;;;;5028621;28;20028;-75
2023/07/06 01:26:51;;;;;;;0.63;0.63;;;21.80;66.40;;;;;;5025917;28;20071;-75
2023/07/06 01:29:48;;;;;;;0.50;0.50;;;21.80;66.20;;;;;;5041832;28;20029;-75
2023/07/06 01:32:21;;;;;;;0.50;0.50;;;21.80;66.40;;;;;;5050017;28;20035;-75
2023/07/06 01:34:53;;;;;;;0.60;0.60;;;21.80;66.60;;;;;;5040309;28;20046;-75
2023/07/06 01:37:32;;;;;;;0.50;0.50;;;21.80;66.40;;;;;;5028075;28;20116;-75
2023/07/06 01:40:00;;;;;;;0.45;0.45;;;21.80;66.30;;;;;;5014964;28;20033;-75
2023/07/06 01:42:32;;;;;;;0.45;0.43;;;21.80;66.70;;;;;;5024628;28;20038;-75
2023/07/06 01:45:09;;;;;;;0.82;0.65;;;21.80;66.40;;;;;;5042871;28;20071;-75
2023/07/06 01:47:39;;;;;;;1.90;0.60;;;21.80;66.20;;;;;;5035217;28;20580;-75
2023/07/06 01:50:06;;;;;;;0.70;0.50;;;21.80;66.30;;;;;;5040154;28;20052;-75
2023/07/06 01:52:58;;;;;;;0.93;0.60;;;21.80;66.50;;;;;;5036333;28;20076;-75
2023/07/06 01:55:36;;;;;;;0.50;0.50;;;21.80;66.60;;;;;;5053159;28;20030;-75
2023/07/06 01:58:24;;;;;;;0.50;0.40;;;21.80;67.00;;;;;;5070864;28;20041;-75
2023/07/06 02:00:53;;;;;;;0.90;0.50;;;21.70;66.50;;;;;;5030814;28;20045;-75
2023/07/06 02:03:18;;;;;;;0.50;0.50;;;21.80;66.70;;;;;;5036207;28;20076;-75
2023/07/06 02:05:44;;;;;;;0.50;0.47;;;21.80;66.40;;;;;;5055833;28;20543;-75
2023/07/06 02:08:10;;;;;;;1.00;0.52;;;21.70;66.50;;;;;;5053273;28;20471;-75
2023/07/06 02:10:35;;;;;;;0.52;0.50;;;21.80;67.20;;;;;;5037098;28;20037;-75
2023/07/06 02:13:03;;;;;;;0.52;0.52;;;21.70;66.40;;;;;;5050483;28;20044;-75
2023/07/06 02:15:30;;;;;;;0.77;0.60;;;21.70;66.30;;;;;;5034218;28;20068;-75
2023/07/06 02:17:56;;;;;;;1.42;0.60;;;21.70;66.50;;;;;;5047343;28;20041;-75
2023/07/06 02:20:22;;;;;;;0.90;0.47;;;21.70;66.30;;;;;;5053061;28;20067;-75
2023/07/06 02:22:47;;;;;;;0.50;0.50;;;21.70;66.30;;;;;;5030263;28;20074;-75
2023/07/06 02:25:13;;;;;;;0.45;0.45;;;21.70;66.50;;;;;;5034715;28;20068;-75
2023/07/06 02:27:39;;;;;;;0.52;0.50;;;21.70;66.30;;;;;;5070026;28;20068;-75
2023/07/06 02:30:05;;;;;;;0.60;0.60;;;21.70;66.10;;;;;;5056719;28;20053;-75
2023/07/06 02:32:32;;;;;;;0.50;0.50;;;21.70;66.30;;;;;;5049064;28;20422;-75
2023/07/06 02:34:57;;;;;;;0.40;0.40;;;21.70;66.40;;;;;;5054766;28;20057;-75
2023/07/06 02:37:23;;;;;;;0.40;0.40;;;21.70;66.40;;;;;;5052296;28;20591;-75
2023/07/06 02:39:50;;;;;;;0.50;0.50;;;21.70;66.70;;;;;;5036530;28;20044;-75
2023/07/06 02:42:15;;;;;;;0.60;0.60;;;21.70;67.00;;;;;;5047565;28;20052;-75
2023/07/06 02:44:42;;;;;;;0.40;0.40;;;21.80;67.10;;;;;;5069090;28;20045;-75
2023/07/06 02:47:08;;;;;;;1.20;0.57;;;21.80;66.30;;;;;;5051715;28;20105;-75
2023/07/06 02:49:33;;;;;;;2.30;0.52;;;21.70;66.00;;;;;;5055181;28;20376;-75
2023/07/06 02:52:02;;;;;;;0.50;0.50;;;21.70;66.10;;;;;;5045554;28;20045;-75
2023/07/06 02:54:28;;;;;;;0.30;0.30;;;21.70;66.10;;;;;;5035305;28;20041;-75
2023/07/06 02:56:55;;;;;;;0.43;0.43;;;21.70;66.10;;;;;;5033496;28;20038;-75
2023/07/06 02:59:21;;;;;;;0.40;0.32;;;21.70;66.30;;;;;;5031565;28;20037;-75
2023/07/06 03:01:47;;;;;;;0.57;0.57;;;21.70;66.10;;;;;;5037328;28;20114;-75
2023/07/06 03:04:12;;;;;;;0.47;0.32;;;21.70;66.90;;;;;;5033699;28;20078;-75
2023/07/06 03:06:38;;;;;;;0.50;0.50;;;21.70;66.10;;;;;;5033811;28;20064;-75
2023/07/06 03:09:04;;;;;;;0.55;0.55;;;21.70;66.20;;;;;;5036184;28;20499;-75
2023/07/06 03:11:31;;;;;;;0.80;0.75;;;21.70;66.10;;;;;;5049398;28;20030;-75
2023/07/06 03:13:56;;;;;;;0.60;0.60;;;21.70;66.00;;;;;;5031370;28;20072;-75
2023/07/06 03:16:22;;;;;;;0.50;0.50;;;21.70;66.10;;;;;;5031709;28;20084;-75
2023/07/06 03:18:48;;;;;;;0.40;0.40;;;21.70;66.20;;;;;;5037439;28;20044;-75
2023/07/06 03:21:14;;;;;;;0.60;0.60;;;21.70;66.10;;;;;;5034354;28;20447;-75
2023/07/06 03:23:39;;;;;;;0.47;0.47;;;21.70;66.90;;;;;;5034633;28;20045;-75
2023/07/06 03:26:06;;;;;;;0.50;0.50;;;21.70;66.10;;;;;;5044497;28;20065;-75
2023/07/06 03:28:31;;;;;;;0.60;0.60;;;21.70;66.00;;;;;;5036380;28;20037;-75
2023/07/06 03:30:57;;;;;;;0.50;0.50;;;21.70;66.10;;;;;;5036892;28;20429;-75
2023/07/06 03:33:24;;;;;;;0.47;0.40;;;21.70;66.00;;;;;;5032936;28;20049;-75
2023/07/06 03:35:53;;;;;;;1.73;0.40;;;21.70;66.00;;;;;;5033462;28;20068;-75
2023/07/06 03:38:19;;;;;;;0.63;0.57;;;21.70;65.90;;;;;;5030185;28;20034;-75
2023/07/06 03:40:49;;;;;;;0.40;0.40;;;21.70;66.00;;;;;;5045981;28;20095;-75
2023/07/06 03:43:16;;;;;;;0.75;0.50;;;21.70;65.90;;;;;;5030936;28;20806;-75
2023/07/06 03:45:41;;;;;;;0.60;0.60;;;21.60;65.90;;;;;;5032145;28;20041;-75
2023/07/06 03:48:07;;;;;;;0.30;0.30;;;21.60;65.90;;;;;;5033219;28;20052;-75
2023/07/06 03:50:34;;;;;;;0.57;0.50;;;21.70;66.00;;;;;;5049134;28;20052;-75
2023/07/06 03:52:59;;;;;;;0.40;0.40;;;21.70;65.90;;;;;;5034096;28;20140;-75
2023/07/06 03:55:26;;;;;;;0.75;0.75;;;21.60;65.80;;;;;;5032943;28;20117;-75
2023/07/06 03:57:52;;;;;;;0.60;0.60;;;21.70;65.90;;;;;;5034285;28;20108;-75
2023/07/06 04:00:22;;;;;;;0.40;0.40;;;21.60;66.00;;;;;;5030091;28;20447;-75
2023/07/06 04:02:55;;;;;;;0.50;0.50;;;21.70;66.00;;;;;;5034720;28;20053;-75
2023/07/06 04:05:22;;;;;;;0.63;0.40;;;21.60;66.00;;;;;;5033433;28;20119;-75
2023/07/06 04:07:52;;;;;;;0.60;0.60;;;21.60;65.90;;;;;;5033014;28;20045;-75
2023/07/06 04:10:19;;;;;;;0.38;0.38;;;21.60;65.90;;;;;;5038471;28;20034;-75
2023/07/06 04:12:44;;;;;;;0.40;0.40;;;21.60;65.90;;;;;;5038275;28;20053;-75
2023/07/06 04:15:10;;;;;;;0.35;0.35;;;21.60;65.90;;;;;;5026654;28;20041;-75
2023/07/06 04:17:36;;;;;;;0.50;0.50;;;21.60;65.90;;;;;;5033661;28;20034;-75
2023/07/06 04:20:17;;;;;;;0.38;0.38;;;21.60;66.70;;;;;;5028485;28;20418;-75
2023/07/06 04:22:43;;;;;;;0.50;0.50;;;21.60;65.90;;;;;;5032852;28;20041;-75
2023/07/06 04:25:08;;;;;;;0.40;0.40;;;21.60;65.90;;;;;;5035610;28;20067;-75
2023/07/06 04:27:34;;;;;;;0.75;0.35;;;21.60;65.90;;;;;;5037284;28;20795;-75
2023/07/06 04:30:00;;;;;;;0.52;0.52;;;21.60;65.90;;;;;;5030283;28;20045;-75
2023/07/06 04:32:31;;;;;;;0.50;0.40;;;21.60;65.90;;;;;;5016827;28;20033;-75
2023/07/06 04:34:57;;;;;;;0.45;0.45;;;21.60;65.90;;;;;;5033243;28;20534;-75
2023/07/06 04:37:23;;;;;;;0.40;0.40;;;21.60;65.90;;;;;;5045853;28;20053;-75
2023/07/06 04:39:49;;;;;;;0.40;0.40;;;21.60;65.90;;;;;;5030743;28;20133;-75
2023/07/06 04:42:14;;;;;;;1.67;0.50;;;21.60;65.90;;;;;;5044777;28;20045;-75
2023/07/06 04:44:40;;;;;;;1.42;0.45;;;21.60;66.00;;;;;;5028815;28;20045;-75
2023/07/06 04:47:06;;;;;;;0.50;0.50;;;21.60;65.90;;;;;;5031025;28;20037;-75
2023/07/06 04:49:31;;;;;;;0.40;0.40;;;21.60;65.90;;;;;;5029389;28;20065;-75
2023/07/06 04:51:57;;;;;;;0.47;0.40;;;21.60;65.90;;;;;;5044461;28;20116;-75
2023/07/06 04:54:22;;;;;;;0.43;0.40;;;21.60;65.90;;;;;;5028405;28;20461;-75
2023/07/06 04:56:48;;;;;;;0.40;0.38;;;21.60;65.90;;;;;;5033066;28;20045;-75
2023/07/06 04:59:13;;;;;;;0.60;0.50;;;21.60;65.80;;;;;;5027719;28;20065;-75
2023/07/06 05:01:39;;;;;;;0.30;0.30;;;21.60;65.90;;;;;;5027461;28;20041;-75
2023/07/06 05:04:05;;;;;;;0.45;0.45;;;21.60;65.90;;;;;;5036017;28;20041;-74
2023/07/06 05:06:31;;;;;;;0.80;0.30;;;21.60;65.80;;;;;;5044920;28;20414;-75
2023/07/06 05:08:57;;;;;;;0.43;0.43;;;21.60;65.90;;;;;;5029129;28;20133;-75
2023/07/06 05:11:25;;;;;;;0.35;0.35;;;21.60;65.90;;;;;;5030049;28;20603;-75
2023/07/06 05:13:50;;;;;;;0.43;0.43;;;21.60;65.90;;;;;;5030700;28;20055;-75
2023/07/06 05:16:16;;;;;;;0.40;0.40;;;21.60;65.90;;;;;;5029949;28;20136;-75
2023/07/06 05:18:43;;;;;;;0.32;0.32;;;21.60;65.90;;;;;;5030627;28;20418;-76
2023/07/06 05:21:10;;;;;;;0.63;0.45;;;21.60;66.10;;;;;;4701806;28;9999801;-76
2023/07/06 05:23:35;;;;;;;1.20;1.10;;;21.60;63.30;;;;;;5017041;28;20402;-75
2023/07/06 05:26:02;;;;;;;1.63;1.17;;;20.80;61.40;;;;;;4677062;28;10000190;-75
2023/07/06 05:28:29;;;;;;;1.50;1.40;;;20.00;63.20;;;;;;5025459;28;20041;-76
2023/07/06 05:30:55;;;;;;;1.30;1.20;;;19.40;65.60;;;;;;5014985;28;20026;-76
2023/07/06 05:33:20;;;;;;;1.25;1.15;;;19.20;66.40;;;;;;5040879;28;20033;-76
2023/07/06 05:35:47;;;;;;;1.40;1.30;;;19.00;67.50;;;;;;5029140;28;20041;-75
2023/07/06 05:38:12;;;;;;;1.40;1.30;;;18.70;68.30;;;;;;5028517;28;20119;-76
2023/07/06 05:40:39;;;;;;;2.85;1.45;;;18.60;69.50;;;;;;5024913;28;20514;-76
2023/07/06 05:43:04;;;;;;;1.30;1.20;;;18.40;70.00;;;;;;5033405;28;20144;-76
2023/07/06 05:45:30;;;;;;;1.58;1.48;;;18.50;70.10;;;;;;5028623;28;20124;-76
2023/07/06 05:47:55;;;;;;;2.75;1.80;;;18.50;69.70;;;;;;5027018;28;20053;-76
2023/07/06 05:50:21;;;;;;;2.65;1.50;;;18.40;69.70;;;;;;5024504;28;20041;-77
2023/07/06 05:52:46;;;;;;;2.00;1.90;;;18.30;70.20;;;;;;5009092;28;20403;-76
2023/07/06 05:55:12;;;;;;;4.28;1.90;;;18.30;70.50;;;;;;5028856;28;20049;-76
2023/07/06 05:57:38;;;;;;;1.52;1.40;;;18.30;71.00;;;;;;5032763;28;20053;-77
2023/07/06 06:00:09;;;;;;;2.60;1.67;;;18.40;70.80;;;;;;5012664;28;20041;-76
2023/07/06 06:02:35;;;;;;;2.75;1.45;;;18.30;70.80;;;;;;5041679;28;20079;-76
2023/07/06 06:05:01;;;;;;;2.83;1.90;;;18.20;71.20;;;;;;5044219;28;20072;-76
2023/07/06 06:07:26;;;;;;;4.43;1.70;;;18.00;72.20;;;;;;5029977;28;20042;-76
2023/07/06 06:09:52;;;;;;;3.97;1.70;;;17.90;73.00;;;;;;5032512;28;20079;-77
2023/07/06 06:12:20;;;;;;;5.32;1.95;;;18.10;72.60;;;;;;5035952;28;20052;-76
2023/07/06 06:14:50;;;;;;;3.95;1.60;;;18.00;72.90;;;;;;5025307;28;20075;-77
2023/07/06 06:17:16;;;;;;;4.88;1.60;;;18.20;72.60;;;;;;5028628;28;20503;-77
2023/07/06 06:19:42;;;;;;;3.60;1.80;;;18.10;72.60;;;;;;5025792;28;20485;-75
2023/07/06 06:22:09;;;;;;;4.35;2.00;;;18.30;72.40;;;;;;5012503;28;20049;-76
2023/07/06 06:24:34;;;;;;;1.77;1.50;;;18.30;72.80;;;;;;5024175;28;20048;-76
2023/07/06 06:27:00;;;;;;;3.33;1.63;;;18.20;72.90;;;;;;5024105;28;20049;-75
2023/07/06 06:29:27;;;;;;;3.33;1.50;;;18.20;73.30;;;;;;5027297;28;20117;-76
2023/07/06 06:31:53;;;;;;;3.20;1.90;;;18.30;73.50;;;;;;5026036;28;20060;-76
2023/07/06 06:34:18;;;;;;;2.05;1.27;;;18.30;73.90;;;;;;5011515;28;20503;-76
2023/07/06 06:36:44;;;;;;;1.85;1.40;;;18.00;74.20;;;;;;5035274;28;20073;-76
2023/07/06 06:39:09;;;;;;;2.75;1.23;;;18.30;73.80;;;;;;5027675;28;20376;-76
2023/07/06 06:41:38;;;;;;;1.20;1.10;;;18.60;72.90;;;;;;5019933;28;20044;-77
2023/07/06 06:44:04;;;;;;;2.78;1.35;;;18.80;71.70;;;;;;5029355;28;20053;-76
2023/07/06 06:46:30;;;;;;;1.60;1.02;;;19.00;71.10;;;;;;5042748;28;20041;-76
2023/07/06 06:48:55;;;;;;;1.95;1.05;;;19.20;70.70;;;;;;5054886;28;20571;-76
2023/07/06 06:51:21;;;;;;;1.40;1.20;;;19.40;70.30;;;;;;5053972;28;20048;-76
2023/07/06 06:53:46;;;;;;;2.38;1.20;;;19.50;69.80;;;;;;5054485;28;20055;-76
2023/07/06 06:56:12;;;;;;;1.38;1.00;;;19.60;69.60;;;;;;5034321;28;20271;-76
2023/07/06 06:58:38;;;;;;;1.23;1.13;;;19.70;69.30;;;;;;5049474;28;20044;-75
2023/07/06 07:01:06;;;;;;;2.88;1.23;;;19.70;69.00;;;;;;5055132;28;20033;-76
2023/07/06 07:03:31;;;;;;;1.63;0.93;;;19.70;68.90;;;;;;5053618;28;20046;-76
2023/07/06 07:06:11;;;;;;;1.75;1.20;;;19.80;68.80;;;;;;5033554;28;20040;-76
2023/07/06 07:08:44;;;;;;;1.50;1.02;;;19.90;68.70;;;;;;5034935;28;20038;-76
2023/07/06 07:11:10;;;;;;;2.25;1.23;;;19.90;68.40;;;;;;5030128;28;20493;-76
2023/07/06 07:13:37;;;;;;;2.05;1.15;;;20.00;68.40;;;;;;5048230;28;20040;-76
2023/07/06 07:16:06;;;;;;;1.27;1.17;;;20.00;68.20;;;;;;5036836;28;20115;-76
2023/07/06 07:18:33;;;;;;;1.20;1.10;;;20.00;68.20;;;;;;5020965;28;20066;-76
2023/07/06 07:21:01;;;;;;;2.00;1.00;;;20.10;68.20;;;;;;5026206;28;20585;-76
2023/07/06 07:23:35;;;;;;;1.05;0.95;;;20.10;68.10;;;;;;5018160;28;20384;-76
2023/07/06 07:26:03;;;;;;;1.17;1.08;;;20.10;68.00;;;;;;5029399;28;20037;-76
2023/07/06 07:28:28;;;;;;;2.30;0.98;;;20.10;68.00;;;;;;5034283;28;20041;-76
2023/07/06 07:30:58;;;;;;;2.45;1.40;;;20.20;68.00;;;;;;5033514;28;20090;-76
2023/07/06 07:33:24;;;;;;;0.98;0.85;;;20.20;68.70;;;;;;5039880;28;20059;-76
2023/07/06 07:35:51;;;;;;;1.40;1.00;;;20.30;68.00;;;;;;5035629;28;20056;-76
2023/07/06 07:38:17;;;;;;;1.65;0.90;;;20.30;67.90;;;;;;5032006;28;20041;-76
2023/07/06 07:40:55;;;;;;;2.50;0.93;;;20.30;67.90;;;;;;5030309;28;20073;-76
2023/07/06 07:43:25;;;;;;;1.02;0.85;;;20.40;67.80;;;;;;5031772;28;20041;-76
2023/07/06 07:45:55;;;;;;;0.88;0.88;;;20.40;67.80;;;;;;5033411;28;20068;-76
2023/07/06 07:48:23;;;;;;;0.90;0.90;;;20.40;67.60;;;;;;5035240;28;20037;-76
2023/07/06 07:50:53;;;;;;;1.77;0.98;;;20.50;67.50;;;;;;5045724;28;20069;-75
2023/07/06 07:53:20;;;;;;;0.80;0.80;;;20.50;67.40;;;;;;5029571;28;20124;-76
2023/07/06 07:55:45;;;;;;;2.05;0.90;;;20.50;67.50;;;;;;5033501;28;20045;-76
2023/07/06 07:58:11;;;;;;;0.80;0.68;;;20.50;67.50;;;;;;5048154;28;20047;-76
2023/07/06 08:00:36;;;;;;;0.80;0.68;;;20.60;67.60;;;;;;5033271;28;20030;-76
2023/07/06 08:03:05;;;;;;;1.58;0.95;;;20.60;67.40;;;;;;5047332;28;20072;-76
2023/07/06 08:05:31;;;;;;;0.80;0.80;;;20.60;67.70;;;;;;5029261;28;20499;-76
2023/07/06 08:07:57;;;;;;;1.00;1.00;;;20.70;67.30;;;;;;5033734;28;20095;-76
2023/07/06 08:10:23;;;;;;;2.75;0.73;;;20.70;67.60;;;;;;5033922;28;20087;-76
2023/07/06 08:12:49;;;;;;;0.93;0.93;;;20.70;67.20;;;;;;5031225;28;20025;-76
2023/07/06 08:15:15;;;;;;;0.77;0.60;;;20.70;67.10;;;;;;5029076;28;20095;-76
2023/07/06 08:17:41;;;;;;;1.40;0.70;;;20.80;66.90;;;;;;5031816;28;20041;-76
2023/07/06 08:20:10;;;;;;;1.73;0.85;;;20.80;67.00;;;;;;5033059;28;20041;-76
2023/07/06 08:22:36;;;;;;;1.15;0.60;;;20.80;66.80;;;;;;5033092;28;20045;-76
2023/07/06 08:25:08;;;;;;;0.70;0.70;;;20.80;66.60;;;;;;5032966;28;20474;-76
2023/07/06 08:27:35;;;;;;;0.70;0.70;;;20.90;66.60;;;;;;5017577;28;20047;-76
2023/07/06 08:30:01;;;;;;;1.65;0.60;;;20.90;66.30;;;;;;5032252;28;20051;-76
2023/07/06 08:32:27;;;;;;;1.27;0.80;;;21.00;66.20;;;;;;5030754;28;20144;-76
2023/07/06 08:34:53;;;;;;;0.73;0.73;;;21.00;66.00;;;;;;5029353;28;20586;-76
2023/07/06 08:37:19;;;;;;;0.80;0.80;;;21.00;66.00;;;;;;5018979;28;20469;-76
2023/07/06 08:39:45;;;;;;;1.10;0.80;;;21.00;65.90;;;;;;5038138;28;20041;-76
2023/07/06 08:42:11;;;;;;;0.95;0.80;;;21.00;65.90;;;;;;5030013;28;20052;-76
2023/07/06 08:44:37;;;;;;;0.80;0.80;;;21.10;65.70;;;;;;5036461;28;20565;-76
2023/07/06 08:47:02;;;;;;;0.70;0.70;;;21.10;65.70;;;;;;5034300;28;20052;-76
2023/07/06 08:49:31;;;;;;;0.70;0.70;;;21.10;65.70;;;;;;5031457;28;20439;-76
2023/07/06 08:52:02;;;;;;;0.60;0.60;;;21.20;65.70;;;;;;5052153;28;20605;-76
2023/07/06 08:54:28;;;;;;;1.10;0.80;;;21.20;65.60;;;;;;5031398;28;20044;-76
2023/07/06 08:56:53;;;;;;;0.63;0.63;;;21.20;65.50;;;;;;5029259;28;20124;-76
2023/07/06 08:59:32;;;;;;;0.70;0.70;;;21.20;65.40;;;;;;5037876;28;20053;-76
2023/07/06 09:01:57;;;;;;;0.80;0.80;;;21.30;65.30;;;;;;5029079;28;20043;-76
2023/07/06 09:04:24;;;;;;;1.05;0.95;;;21.30;66.00;;;;;;5051058;28;20042;-76
2023/07/06 09:06:54;;;;;;;0.82;0.73;;;21.30;65.20;;;;;;5065004;28;20099;-76
2023/07/06 09:09:19;;;;;;;0.70;0.70;;;21.30;65.10;;;;;;5032769;28;20040;-76
2023/07/06 09:11:46;;;;;;;0.60;0.60;;;21.40;65.10;;;;;;5029221;28;20048;-76
2023/07/06 09:14:16;;;;;;;0.57;0.57;;;21.40;65.10;;;;;;5030179;28;20274;-76
2023/07/06 09:17:00;;;;;;;0.57;0.57;;;21.40;65.00;;;;;;5014398;28;20040;-76
2023/07/06 09:19:26;;;;;;;0.75;0.75;;;21.40;64.80;;;;;;5032959;28;20041;-76
2023/07/06 09:21:54;;;;;;;0.50;0.50;;;21.50;64.80;;;;;;5037754;28;20045;-76
2023/07/06 09:24:27;;;;;;;1.30;0.98;;;21.50;64.70;;;;;;5031357;28;20052;-76
2023/07/06 09:26:53;;;;;;;0.65;0.65;;;21.50;64.60;;;;;;5030939;28;20546;-76
2023/07/06 09:29:21;;;;;;;0.63;0.60;;;21.50;64.60;;;;;;5027525;28;20044;-76
2023/07/06 09:31:47;;;;;;;0.68;0.68;;;21.50;64.50;;;;;;5034804;28;20376;-76
2023/07/06 09:34:32;;;;;;;0.70;0.70;;;21.60;64.50;;;;;;5049092;28;20037;-76
2023/07/06 09:36:59;;;;;;;1.30;0.73;;;21.60;64.40;;;;;;5034168;28;20454;-76
2023/07/06 09:39:25;;;;;;;0.77;0.77;;;21.60;64.40;;;;;;5053709;28;20477;-76
2023/07/06 09:41:51;;;;;;;0.70;0.70;;;21.60;64.30;;;;;;5046009;28;20573;-76
2023/07/06 09:44:27;;;;;;;0.63;0.63;;;21.70;64.30;;;;;;5036450;28;20047;-76
2023/07/06 09:46:55;;;;;;;0.68;0.68;;;21.70;64.30;;;;;;5064758;28;20426;-76
2023/07/06 09:49:21;;;;;;;0.40;0.40;;;21.70;64.20;;;;;;5048396;28;20052;-76
2023/07/06 09:51:58;;;;;;;0.68;0.68;;;21.70;64.20;;;;;;5051531;28;20044;-76
2023/07/06 09:54:30;;;;;;;0.60;0.60;;;21.70;64.10;;;;;;5051282;28;20043;-76
2023/07/06 09:56:56;;;;;;;0.60;0.45;;;21.70;64.00;;;;;;5060758;28;20033;-76
2023/07/06 09:59:22;;;;;;;2.15;1.20;;;21.80;64.20;;;;;;5050399;28;20043;-76
2023/07/06 10:02:05;;;;;;;0.70;0.70;;;21.80;64.10;;;;;;5048914;28;20468;-76
2023/07/06 10:04:44;;;;;;;0.60;0.57;;;21.80;64.00;;;;;;5068801;28;20036;-76
2023/07/06 10:07:23;;;;;;;1.15;0.85;;;21.80;64.00;;;;;;5028288;28;20031;-76
2023/07/06 10:10:30;;;;;;;0.80;0.50;;;21.80;64.00;;;;;;5053406;28;20029;-77
2023/07/06 10:13:00;;;;;;;0.88;0.80;;;21.90;64.00;;;;;;5033508;28;20072;-76
2023/07/06 10:15:51;;;;;;;0.57;0.57;;;21.90;63.90;;;;;;5033129;28;20187;-76
2023/07/06 10:18:21;;;;;;;0.65;0.65;;;21.90;63.90;;;;;;5044406;28;20048;-76
2023/07/06 10:20:59;;;;;;;0.60;0.60;;;21.90;63.80;;;;;;5048565;28;20055;-76
2023/07/06 10:23:26;;;;;;;0.60;0.60;;;21.90;63.80;;;;;;5041512;28;20044;-76
2023/07/06 10:26:11;;;;;;;0.50;0.50;;;22.00;63.90;;;;;;5055169;28;20048;-76
2023/07/06 10:28:41;;;;;;;0.50;0.50;;;22.00;63.80;;;;;;5051706;28;20043;-76
2023/07/06 10:31:08;;;;;;;0.60;0.60;;;22.00;63.80;;;;;;5015833;28;20128;-76
2023/07/06 10:33:58;;;;;;;0.52;0.52;;;22.00;63.70;;;;;;5007276;28;20033;-76
2023/07/06 10:36:26;;;;;;;0.55;0.55;;;22.00;63.60;;;;;;5026399;28;20038;-76
2023/07/06 10:38:54;;;;;;;0.65;0.60;;;22.00;63.60;;;;;;5029267;28;20032;-76
2023/07/06 10:41:22;;;;;;;0.73;0.73;;;22.00;63.50;;;;;;5032193;28;20410;-76
2023/07/06 10:43:49;;;;;;;0.45;0.45;;;22.00;63.50;;;;;;5034364;28;20048;-77
2023/07/06 10:46:31;;;;;;;0.50;0.50;;;22.00;63.50;;;;;;5050705;28;20033;-76
2023/07/06 10:48:57;;;;;;;0.68;0.68;;;22.00;63.50;;;;;;5037041;28;20064;-76
2023/07/06 10:51:24;;;;;;;0.60;0.60;;;22.00;63.40;;;;;;5018975;28;20065;-76
2023/07/06 10:54:07;;;;;;;0.40;0.40;;;22.10;63.40;;;;;;5001148;28;20102;-77
2023/07/06 10:56:39;;;;;;;0.40;0.40;;;22.10;63.40;;;;;;5034339;28;20037;-76
2023/07/06 10:59:16;;;;;;;0.40;0.40;;;22.10;63.40;;;;;;5031499;28;20120;-76
2023/07/06 11:01:44;;;;;;;0.50;0.50;;;22.10;63.40;;;;;;5032735;28;20044;-76
2023/07/06 11:04:39;;;;;;;0.50;0.50;;;22.10;63.40;;;;;;5067766;28;20042;-76
2023/07/06 11:07:07;;;;;;;0.60;0.60;;;22.10;63.40;;;;;;5017583;28;20407;-77
2023/07/06 11:09:47;;;;;;;0.52;0.50;;;22.10;63.30;;;;;;5032847;28;20063;-76
2023/07/06 11:12:19;;;;;;;0.73;0.60;;;22.10;63.20;;;;;;5034156;28;20172;-76
2023/07/06 11:14:45;;;;;;;0.52;0.52;;;22.10;63.20;;;;;;5043031;28;20045;-76
2023/07/06 11:17:30;;;;;;;0.40;0.40;;;22.10;63.30;;;;;;5022450;28;20044;-77
2023/07/06 11:20:01;;;;;;;;;;;22.10;63.30;;;;;;5038852;28;20372;-77
2023/07/06 11:22:26;;;;;;;0.40;0.40;;;22.10;63.30;;;;;;5047621;28;20461;-77
2023/07/06 11:24:59;;;;;;;0.63;0.63;;;22.10;63.20;;;;;;5045007;28;20083;-76
2023/07/06 11:27:34;;;;;;;0.50;0.50;;;22.10;64.00;;;;;;5029683;28;20040;-78
2023/07/06 11:30:39;;;;;;;0.75;0.60;;;22.10;63.30;;;;;;5051749;28;20072;-76
2023/07/06 11:33:09;;;;;;;0.50;0.50;;;22.20;63.30;;;;;;4978466;28;20135;-77
2023/07/06 11:36:00;;;;;;;0.63;0.45;;;22.20;63.20;;;;;;4997481;28;20107;-77
2023/07/06 11:38:50;;;;;;;0.47;0.45;;;22.20;63.20;;;;;;4991283;28;20073;-77
2023/07/06 11:41:27;;;;;;;0.40;0.40;;;22.20;63.30;;;;;;4995899;28;20535;-77
2023/07/06 11:44:26;;;;;;;0.40;0.40;;;22.20;63.20;;;;;;5027809;28;20046;-77
2023/07/06 11:47:11;;;;;;;0.60;0.60;;;22.20;63.20;;;;;;5027504;28;20049;-77
2023/07/06 11:49:44;;;;;;;0.50;0.45;;;22.20;63.20;;;;;;4995417;28;20053;-77
2023/07/06 11:52:20;;;;;;;0.40;0.40;;;22.20;63.00;;;;;;5006738;28;20148;-76
2023/07/06 11:54:54;;;;;;;0.40;0.40;;;22.20;63.10;;;;;;5013584;28;20590;-76
2023/07/06 11:57:41;;;;;;;;;;;22.20;63.10;;;;;;5010976;28;20033;-77
2023/07/06 12:00:53;;;;;;;0.40;0.40;;;22.30;63.40;;;;;;4992926;28;19991;-77
2023/07/06 12:03:10;;;;;;;0.93;0.50;;;22.20;63.10;;;;;;5010019;28;20136;-77
2023/07/06 12:05:44;;;;;;;0.50;0.50;;;22.20;63.10;;;;;;5007865;28;20041;-77
2023/07/06 12:08:19;;;;;;;0.50;0.50;;;22.30;63.20;;;;;;5019977;28;20042;-77
2023/07/06 12:10:48;;;;;;;1.17;0.40;;;22.30;63.10;;;;;;5020780;28;20128;-77
2023/07/06 12:13:22;;;;;;;0.50;0.50;;;22.30;63.00;;;;;;5030234;28;20033;-77
2023/07/06 12:15:49;;;;;;;0.63;0.50;;;22.20;63.10;;;;;;5033859;28;20053;-77
2023/07/06 12:18:15;;;;;;;0.40;0.40;;;22.20;63.20;;;;;;5033408;28;20041;-77
2023/07/06 12:20:41;;;;;;;0.50;0.50;;;22.30;63.20;;;;;;5017531;28;20059;-77
2023/07/06 12:23:10;;;;;;;0.77;0.60;;;22.30;63.00;;;;;;5029858;28;20054;-77
2023/07/06 12:25:35;;;;;;;0.40;0.30;;;22.30;63.00;;;;;;5026980;28;20110;-77
2023/07/06 12:28:01;;;;;;;0.60;0.60;;;22.30;63.00;;;;;;5034224;28;20044;-77
2023/07/06 12:30:33;;;;;;;0.40;0.40;;;22.30;63.00;;;;;;5032288;28;20049;-77
2023/07/06 12:33:04;;;;;;;0.63;0.63;;;22.30;63.00;;;;;;5026612;28;20041;-77
2023/07/06 12:35:29;;;;;;;0.50;0.50;;;22.30;63.00;;;;;;5030064;28;20091;-77
2023/07/06 12:37:56;;;;;;;0.50;0.50;;;22.30;63.00;;;;;;5030418;28;20037;-77
2023/07/06 12:40:25;;;;;;;0.50;0.50;;;22.30;63.00;;;;;;5034254;28;20041;-78
2023/07/06 12:42:54;;;;;;;0.50;0.50;;;22.30;62.90;;;;;;5032504;28;20136;-77
2023/07/06 12:45:21;;;;;;;0.40;0.40;;;22.30;62.80;;;;;;5017210;28;20033;-77
2023/07/06 12:47:54;;;;;;;0.50;0.47;;;22.30;62.80;;;;;;5027778;28;20041;-77
2023/07/06 12:50:26;;;;;;;0.40;0.40;;;22.30;63.70;;;;;;5015207;28;20080;-77
2023/07/06 12:53:01;;;;;;;0.40;0.40;;;22.30;62.80;;;;;;5028798;28;20029;-77
2023/07/06 12:55:26;;;;;;;0.43;0.43;;;22.30;63.60;;;;;;5028640;28;20042;-77
2023/07/06 12:57:53;;;;;;;0.52;0.52;;;22.30;62.80;;;;;;5027626;28;20116;-76
2023/07/06 13:00:22;;;;;;;0.65;0.65;;;22.40;62.80;;;;;;5046058;28;20045;-77